Surface observations / UK / EGOM

Quebec | Canada | USA | France | UK | Europe | Elsewhere

Display: Info & Location for EGOM | Help decoding METAR


Raw surface observations for station EGOM
EGOM 281550Z AUTO 24019KT 9999 FEW050/// SCT220/// 16/08 Q1010=
EGOM 281450Z AUTO 23019KT 9999 FEW030/// SCT048/// 15/08 Q1010=
EGOM 281350Z AUTO 23018G28KT 9999 FEW033/// BKN050/// 15/08 Q1010=
EGOM 281250Z AUTO 23021KT 9999 FEW032/// BKN040/// 15/07 Q1010=
EGOM 281150Z AUTO 21017KT 9999 SCT031/// BKN050/// 16/10 Q1009=
EGOM 281050Z AUTO 23016KT 9999 SCT050/// 15/09 Q1009=
EGOM 280950Z AUTO 23011KT 9999 BKN013/// 13/12 Q1009 RERA=
EGOM 280850Z AUTO 22011KT 9999 BKN008/// SCT027/// 12/11 Q1008=
EGOM 280750Z AUTO 21009KT 9999 BKN010/// SCT022/// 12/10 Q1008=
EGOM 280650Z AUTO 23011KT 9999 BKN007/// SCT050/// 11/10 Q1007=
EGOM 280450Z AUTO 23012KT 9999 BKN006/// 11/10 Q1006=
EGOM 280350Z AUTO 23011KT 9999 BKN006/// BKN015/// 11/10 Q1006 RERA=
EGOM 280250Z AUTO 23012KT 9999 BKN007/// BKN015/// 11/10 Q1005 RERA=
EGOM 280150Z AUTO 23010KT 9999 -DZ BKN009/// 11/10 Q1005=
EGOM 280050Z AUTO 24009KT 9999 FEW013/// 10/09 Q1005=
EGOM 272350Z AUTO 22010KT 9999 BKN018/// 11/09 Q1004=
EGOM 272250Z AUTO 21005KT 9999 FEW022/// SCT032/// 09/08 Q1004=
EGOM 272150Z AUTO 18007KT 9999 FEW048/// 09/07 Q1004=
EGOM 272050Z AUTO 19008KT 9999 FEW045/// 08/07 Q1004=
EGOM 271950Z AUTO 23009KT 9999 NCD 09/07 Q1003=
EGOM 271850Z AUTO 23009KT 9999 NCD 11/08 Q1002=
EGOM 271750Z AUTO 25015KT 9999 FEW047/// 13/08 Q1002=
EGOM 271650Z AUTO 23015KT 9999 FEW029/// 14/08 Q1002=